Time;durP1;ratioP1;P1;durP2;ratioP2;P2;SDS_P1;SDS_P2;PMS_P1;PMS_P2;Temp;Humidity;BMP_temperature;BMP_pressure;BME280_temperature;BME280_humidity;BME280_pressure;Samples;Min_cycle;Max_cycle;Signal;HPM_P1;HPM_P2
2022/12/12 06:52:51;;;;;;;54.83;33.03;;;;;;;-3.18;100.00;96477.52;1871488;76;26512;-62
2022/12/12 06:55:19;;;;;;;53.35;33.67;;;;;;;-3.18;100.00;96490.61;1791288;78;20876;-61
2022/12/12 06:57:46;;;;;;;47.27;30.05;;;;;;;-3.14;100.00;96493.81;1825089;78;21282;-62
2022/12/12 07:00:14;;;;;;;33.95;22.30;;;;;;;-3.07;100.00;96499.69;1827867;78;21401;-63
2022/12/12 07:02:41;;;;;;;31.42;19.87;;;;;;;-2.98;100.00;96503.48;1817837;78;20950;-60
2022/12/12 07:05:08;;;;;;;33.65;18.92;;;;;;;-2.89;100.00;96499.92;1819541;78;20951;-62
2022/12/12 07:07:35;;;;;;;29.57;19.90;;;;;;;-2.81;100.00;96508.18;1823986;78;21264;-65
2022/12/12 07:10:01;;;;;;;26.52;19.10;;;;;;;-2.71;100.00;96504.10;1822816;78;22116;-64
2022/12/12 07:12:28;;;;;;;31.82;20.17;;;;;;;-2.63;100.00;96499.73;1821237;78;21017;-63
2022/12/12 07:14:55;;;;;;;27.95;18.20;;;;;;;-2.62;100.00;96506.58;1810562;78;21191;-63
2022/12/12 07:17:21;;;;;;;31.90;19.27;;;;;;;-2.58;100.00;96511.60;1815124;78;21057;-65
2022/12/12 07:19:48;;;;;;;26.50;19.25;;;;;;;-2.54;100.00;96517.97;1822800;78;21501;-64
2022/12/12 07:22:15;;;;;;;28.00;19.00;;;;;;;-2.50;100.00;96519.06;1815588;77;21337;-66
2022/12/12 07:24:42;;;;;;;31.65;20.55;;;;;;;-2.46;100.00;96517.53;1806554;77;21050;-66
2022/12/12 07:27:08;;;;;;;27.20;19.65;;;;;;;-2.44;100.00;96523.31;1813761;77;21002;-63
2022/12/12 07:29:36;;;;;;;29.32;19.70;;;;;;;-2.46;100.00;96518.84;1825880;77;20896;-66
2022/12/12 07:32:03;;;;;;;27.02;19.80;;;;;;;-2.45;99.94;96527.00;1816307;77;20978;-65
2022/12/12 07:34:30;;;;;;;28.73;18.85;;;;;;;-2.43;99.96;96526.23;1811966;78;21115;-66
2022/12/12 07:36:56;;;;;;;27.50;19.48;;;;;;;-2.41;99.71;96522.33;1817478;77;20944;-63
2022/12/12 07:39:23;;;;;;;27.27;18.82;;;;;;;-2.33;99.49;96526.36;1825915;78;21394;-65
2022/12/12 07:41:50;;;;;;;26.90;18.67;;;;;;;-2.29;98.91;96522.20;1824018;78;21016;-64
2022/12/12 07:44:19;;;;;;;29.02;19.02;;;;;;;-2.28;97.92;96527.20;1820926;77;20883;-66
2022/12/12 07:46:45;;;;;;;29.40;19.50;;;;;;;-2.29;97.31;96528.25;1814144;77;21240;-66
2022/12/12 07:49:12;;;;;;;28.20;20.75;;;;;;;-2.35;97.25;96529.72;1810767;77;20946;-63
2022/12/12 07:51:38;;;;;;;29.15;21.35;;;;;;;-2.40;97.28;96540.95;1809252;77;21012;-62
2022/12/12 07:54:05;;;;;;;28.52;20.70;;;;;;;-2.39;97.76;96534.67;1812852;77;20967;-65
2022/12/12 07:56:32;;;;;;;29.98;21.10;;;;;;;-2.31;98.13;96537.40;1814058;78;20950;-64
2022/12/12 07:58:59;;;;;;;29.12;21.82;;;;;;;-2.27;97.60;96541.11;1819978;77;21258;-66
2022/12/12 08:01:26;;;;;;;28.40;20.37;;;;;;;-2.27;97.35;96548.47;1811263;77;21054;-66
2022/12/12 08:03:54;;;;;;;31.50;21.75;;;;;;;-2.25;97.33;96541.66;1806839;78;21580;-62
2022/12/12 08:06:22;;;;;;;27.65;20.12;;;;;;;-2.25;97.54;96541.66;1826180;78;21414;-63
2022/12/12 08:08:49;;;;;;;29.95;20.95;;;;;;;-2.25;97.02;96547.70;1822020;78;20985;-64
2022/12/12 08:11:19;;;;;;;30.05;22.55;;;;;;;-2.24;97.19;96554.52;1826711;78;21082;-65
2022/12/12 08:13:45;;;;;;;30.23;21.97;;;;;;;-2.24;97.18;96556.37;1826758;78;21370;-64
2022/12/12 08:16:19;;;;;;;29.30;21.87;;;;;;;-2.20;97.32;96558.26;1824832;77;20869;-62
2022/12/12 08:18:46;;;;;;;31.50;21.37;;;;;;;-2.15;96.71;96562.77;1817229;78;20930;-66
2022/12/12 08:21:14;;;;;;;32.98;23.27;;;;;;;-2.11;96.81;96566.48;1816478;78;20966;-64
2022/12/12 08:23:41;;;;;;;30.00;21.68;;;;;;;-2.11;96.27;96573.05;1812069;78;21263;-62
2022/12/12 08:26:16;;;;;;;30.72;21.80;;;;;;;-2.14;95.95;96571.70;1804300;77;20844;-62
2022/12/12 08:28:49;;;;;;;29.45;20.50;;;;;;;-2.13;95.98;96575.12;1813023;77;20978;-65
2022/12/12 08:31:17;;;;;;;30.57;20.50;;;;;;;-2.13;95.31;96574.61;1828243;77;20999;-67
2022/12/12 08:33:46;;;;;;;31.95;22.20;;;;;;;-2.13;94.85;96584.30;1825700;78;21089;-62
2022/12/12 08:36:17;;;;;;;27.50;20.80;;;;;;;-2.17;94.61;96575.34;1820546;78;21509;-64
2022/12/12 08:38:43;;;;;;;29.42;20.60;;;;;;;-2.20;94.40;96576.63;1805614;78;21057;-64
2022/12/12 08:41:11;;;;;;;28.75;20.15;;;;;;;-2.23;94.52;96574.48;1814338;77;20983;-63
2022/12/12 08:43:38;;;;;;;27.60;20.52;;;;;;;-2.24;94.46;96566.86;1821669;78;20949;-67
2022/12/12 08:46:05;;;;;;;28.83;20.08;;;;;;;-2.23;94.58;96565.81;1811381;77;21089;-67
2022/12/12 08:48:34;;;;;;;29.25;19.42;;;;;;;-2.23;94.49;96561.36;1819426;78;21285;-66
2022/12/12 08:51:01;;;;;;;30.40;20.35;;;;;;;-2.21;94.44;96553.23;1820117;78;21200;-66
2022/12/12 08:53:29;;;;;;;26.80;20.48;;;;;;;-2.24;94.24;96555.06;1820895;78;21537;-62
2022/12/12 08:55:55;;;;;;;27.98;20.05;;;;;;;-2.25;94.58;96565.27;1825899;78;21050;-62
2022/12/12 08:58:22;;;;;;;28.05;19.57;;;;;;;-2.22;94.67;96568.72;1797411;78;21571;-64
2022/12/12 09:00:49;;;;;;;27.05;20.30;;;;;;;-2.19;94.21;96563.77;1816217;78;21127;-64
2022/12/12 09:03:17;;;;;;;28.50;19.32;;;;;;;-2.13;94.53;96564.12;1817723;77;20989;-65
2022/12/12 09:05:46;;;;;;;27.35;19.35;;;;;;;-2.09;94.14;96569.66;1815722;78;20918;-62
2022/12/12 09:08:13;;;;;;;29.85;20.50;;;;;;;-2.08;93.65;96567.31;1827016;78;20959;-64
2022/12/12 09:10:41;;;;;;;28.80;19.65;;;;;;;-2.09;93.92;96570.97;1826907;78;20947;-60
2022/12/12 09:13:08;;;;;;;27.22;19.73;;;;;;;-2.07;93.87;96567.58;1814442;77;21198;-64
2022/12/12 09:15:36;;;;;;;25.48;19.23;;;;;;;-2.08;93.78;96558.13;1816564;78;21430;-65
2022/12/12 09:18:03;;;;;;;24.75;17.90;;;;;;;-2.07;93.60;96549.20;1821250;77;20872;-61
2022/12/12 09:20:30;;;;;;;28.30;19.20;;;;;;;-2.09;93.14;96556.53;1813448;78;20963;-61
2022/12/12 09:22:57;;;;;;;29.27;19.62;;;;;;;-2.12;93.44;96565.69;1825114;78;20883;-69
2022/12/12 09:25:24;;;;;;;24.45;18.55;;;;;;;-2.13;93.46;96552.82;1815149;77;21314;-60
2022/12/12 09:27:51;;;;;;;29.23;20.12;;;;;;;-2.15;93.40;96552.28;1809900;77;21018;-58
2022/12/12 09:30:17;;;;;;;28.32;20.17;;;;;;;-2.14;93.57;96565.14;1813412;77;20872;-62
2022/12/12 09:32:44;;;;;;;26.33;19.45;;;;;;;-2.11;93.74;96563.34;1825315;78;20974;-59
2022/12/12 09:35:10;;;;;;;28.80;19.60;;;;;;;-2.09;93.54;96572.28;1824992;78;21068;-59
2022/12/12 09:37:37;;;;;;;27.85;20.35;;;;;;;-2.07;93.75;96573.63;1819121;78;21978;-63
2022/12/12 09:40:05;;;;;;;28.65;21.10;;;;;;;-2.01;93.76;96573.17;1800421;78;20973;-74
2022/12/12 09:42:32;;;;;;;30.27;20.95;;;;;;;-1.96;93.59;96564.05;1825483;78;20955;-65
2022/12/12 09:45:02;;;;;;;28.32;19.92;;;;;;;-1.93;93.59;96564.08;1826213;78;21140;-71
2022/12/12 09:47:34;;;;;;;33.02;20.50;;;;;;;-1.92;93.47;96570.90;1794945;80;21336;-62
2022/12/12 09:50:05;;;;;;;27.82;21.25;;;;;;;-1.91;93.54;96568.05;1814081;78;21778;-64
2022/12/12 09:52:35;;;;;;;29.35;21.42;;;;;;;-1.89;93.70;96573.84;1821381;78;21498;-60
2022/12/12 09:55:23;;;;;;;29.87;21.50;;;;;;;-1.87;93.74;96577.01;1815903;79;21399;-65
2022/12/12 09:58:20;;;;;;;33.58;23.00;;;;;;;-1.81;93.84;96574.70;1812025;78;20987;-60
2022/12/12 10:00:56;;;;;;;29.52;21.27;;;;;;;-1.80;93.68;96563.17;1815824;79;20865;-58
2022/12/12 10:04:04;;;;;;;32.10;21.48;;;;;;;-1.79;93.18;96563.98;1815974;79;21207;-61
2022/12/12 10:06:46;;;;;;;32.50;21.48;;;;;;;-1.81;93.16;96564.72;1814464;77;20963;-62
2022/12/12 10:09:34;;;;;;;26.37;19.05;;;;;;;-1.84;92.98;96573.91;1811103;78;20967;-66
2022/12/12 10:12:01;;;;;;;27.07;18.95;;;;;;;-1.85;93.01;96580.17;1815865;78;20924;-62
2022/12/12 10:14:41;;;;;;;25.95;19.23;;;;;;;-1.85;92.76;96584.11;1815715;78;20967;-61
2022/12/12 10:17:16;;;;;;;28.00;16.93;;;;;;;-1.84;92.64;96583.09;1812489;78;21909;-62
2022/12/12 10:19:55;;;;;;;25.40;19.17;;;;;;;-1.83;92.28;96571.53;1798960;78;21359;-63
2022/12/12 10:22:51;;;;;;;23.25;17.05;;;;;;;-1.82;92.60;96586.25;1814733;78;21018;-61
2022/12/12 10:25:32;;;;;;;23.50;17.02;;;;;;;-1.85;91.73;96595.92;1807275;77;20897;-71
2022/12/12 10:28:14;;;;;;;23.62;17.23;;;;;;;-1.87;91.66;96588.82;1762336;78;20916;-63
2022/12/12 10:31:39;;;;;;;25.02;18.32;;;;;;;-1.88;91.61;96592.47;1815809;78;21090;-65
2022/12/12 10:34:32;;;;;;;23.77;17.82;;;;;;;-1.84;91.97;96593.59;1807642;79;20867;-65
2022/12/12 10:37:30;;;;;;;25.37;18.15;;;;;;;-1.79;91.65;96581.80;1807505;79;20871;-65
2022/12/12 10:40:35;;;;;;;22.82;16.73;;;;;;;-1.79;91.94;96580.50;1763922;79;21078;-64
2022/12/12 10:43:12;;;;;;;25.12;18.00;;;;;;;-1.76;91.73;96582.64;1790465;79;21073;-62
2022/12/12 10:45:57;;;;;;;24.00;17.37;;;;;;;-1.79;92.01;96572.63;1814449;78;21450;-58
2022/12/12 10:48:23;;;;;;;24.10;17.25;;;;;;;-1.72;92.15;96579.78;1807743;78;21182;-59
2022/12/12 10:50:55;;;;;;;20.85;16.37;;;;;;;-1.65;92.06;96586.95;1808680;79;21520;-62
2022/12/12 10:53:21;;;;;;;22.07;16.15;;;;;;;-1.63;92.02;96581.47;1812254;78;21505;-66
2022/12/12 10:55:56;;;;;;;20.43;15.32;;;;;;;-1.60;91.51;96590.17;1770154;78;21511;-62
2022/12/12 10:58:26;;;;;;;19.00;14.90;;;;;;;-1.62;91.43;96585.66;1820972;78;21509;-64
2022/12/12 11:01:00;;;;;;;26.52;17.30;;;;;;;-1.62;90.80;96598.28;1819269;77;20943;-64
2022/12/12 11:03:40;;;;;;;20.95;15.65;;;;;;;-1.60;91.18;96598.81;1818781;78;20957;-59
2022/12/12 11:06:14;;;;;;;25.02;17.73;;;;;;;-1.57;91.21;96594.39;1821403;78;20879;-63
2022/12/12 11:08:55;;;;;;;20.68;16.67;;;;;;;-1.55;91.40;96583.64;1782831;80;20969;-66
2022/12/12 11:11:24;;;;;;;21.52;15.18;;;;;;;-1.50;91.46;96591.05;1788501;80;21149;-60
2022/12/12 11:13:59;;;;;;;22.87;16.37;;;;;;;-1.48;91.08;96604.73;1798417;78;21512;-60
2022/12/12 11:16:39;;;;;;;21.25;16.48;;;;;;;-1.54;90.50;96614.12;1825550;78;20872;-61
2022/12/12 11:19:20;;;;;;;24.57;16.90;;;;;;;-1.56;90.76;96614.89;1824782;78;20926;-57
2022/12/12 11:21:47;;;;;;;23.30;17.62;;;;;;;-1.57;91.06;96611.47;1825407;78;21386;-59
2022/12/12 11:24:19;;;;;;;23.75;17.12;;;;;;;-1.57;91.12;96612.78;1824665;78;21204;-57
2022/12/12 11:27:00;;;;;;;26.33;17.65;;;;;;;-1.61;91.38;96610.38;1825515;78;21049;-61
2022/12/12 11:29:46;;;;;;;24.47;18.67;;;;;;;-1.63;91.59;96619.02;1823513;78;20933;-62
2022/12/12 11:32:32;;;;;;;23.05;17.62;;;;;;;-1.64;91.58;96630.55;1827674;78;20980;-63
2022/12/12 11:35:01;;;;;;;24.32;17.98;;;;;;;-1.64;91.60;96631.87;1791332;78;21452;-61
2022/12/12 11:37:36;;;;;;;23.42;18.48;;;;;;;-1.69;91.47;96627.87;1824473;77;21131;-64
2022/12/12 11:40:05;;;;;;;24.25;17.80;;;;;;;-1.69;91.90;96629.69;1816590;78;20925;-64
2022/12/12 11:42:33;;;;;;;21.45;16.12;;;;;;;-1.66;91.97;96631.33;1825186;78;20990;-63
2022/12/12 11:45:11;;;;;;;23.55;18.05;;;;;;;-1.61;91.86;96633.21;1827726;78;21011;-64
2022/12/12 11:47:41;;;;;;;25.15;19.27;;;;;;;-1.57;91.92;96628.53;1825087;78;20874;-60
2022/12/12 11:50:28;;;;;;;25.27;18.27;;;;;;;-1.52;91.71;96628.59;1838694;78;21412;-64
2022/12/12 11:53:00;;;;;;;22.98;17.17;;;;;;;-1.50;91.46;96619.95;1838521;78;20905;-63
2022/12/12 11:55:58;;;;;;;23.38;18.00;;;;;;;-1.50;91.37;96622.57;1828849;77;20838;-65
2022/12/12 11:58:47;;;;;;;23.07;18.10;;;;;;;-1.49;91.30;96622.86;1827625;78;20953;-64
2022/12/12 12:01:47;;;;;;;25.55;18.60;;;;;;;-1.47;91.44;96623.40;1797297;78;20957;-60
2022/12/12 12:04:39;;;;;;;24.07;18.23;;;;;;;-1.42;91.41;96620.83;1814253;78;21172;-61
2022/12/12 12:07:47;;;;;;;22.98;16.90;;;;;;;-1.36;91.51;96622.97;1827325;78;20880;-65
2022/12/12 12:10:40;;;;;;;22.70;16.70;;;;;;;-1.32;91.32;96621.97;1827492;78;20968;-64
2022/12/12 12:13:31;;;;;;;25.23;18.25;;;;;;;-1.31;91.28;96627.48;1827349;78;20912;-60
2022/12/12 12:16:25;;;;;;;25.23;17.87;;;;;;;-1.32;91.13;96619.34;1764612;78;20952;-60
2022/12/12 12:19:23;;;;;;;23.07;18.17;;;;;;;-1.32;91.29;96625.91;1815003;78;21675;-62
2022/12/12 12:22:27;;;;;;;23.18;16.65;;;;;;;-1.30;91.57;96622.51;1827247;78;20962;-60
2022/12/12 12:25:17;;;;;;;20.23;16.60;;;;;;;-1.22;91.52;96623.36;1827367;78;20947;-59
2022/12/12 12:28:21;;;;;;;19.70;15.68;;;;;;;-1.24;90.62;96629.38;1827323;78;20991;-64
2022/12/12 12:30:56;;;;;;;20.43;16.02;;;;;;;-1.27;91.00;96635.16;1826834;78;20982;-62
2022/12/12 12:33:49;;;;;;;19.10;14.58;;;;;;;-1.28;91.04;96625.16;1826869;78;21239;-63
2022/12/12 12:36:24;;;;;;;21.93;15.70;;;;;;;-1.25;91.09;96621.25;1826176;78;20865;-62
2022/12/12 12:39:14;;;;;;;21.12;15.23;;;;;;;-1.22;91.40;96624.16;1827011;78;21010;-61
2022/12/12 12:42:01;;;;;;;20.72;16.10;;;;;;;-1.16;91.37;96619.23;1827138;78;21457;-64
2022/12/12 12:47:51;;;;;;;20.48;16.23;;;;;;;-1.05;90.79;96619.59;1817461;77;21159;-60
2022/12/12 12:50:25;;;;;;;22.48;17.45;;;;;;;-1.08;90.82;96624.02;1803227;78;20971;-60
2022/12/12 12:53:03;;;;;;;21.95;17.02;;;;;;;-1.08;91.19;96629.28;1803416;78;21681;-59
2022/12/12 12:55:43;;;;;;;20.60;15.78;;;;;;;-1.06;90.85;96618.54;1810772;77;20978;-65
2022/12/12 12:58:25;;;;;;;20.85;15.70;;;;;;;-1.06;91.08;96626.42;1820120;77;20947;-62
2022/12/12 13:01:13;;;;;;;19.12;15.43;;;;;;;-1.06;90.86;96623.80;1805838;78;21753;-63
2022/12/12 13:03:51;;;;;;;20.57;15.63;;;;;;;-1.06;90.72;96626.42;1820891;78;20951;-64
2022/12/12 13:06:22;;;;;;;23.47;15.80;;;;;;;-1.06;90.38;96626.42;1821134;78;20911;-61
2022/12/12 13:09:14;;;;;;;20.17;14.00;;;;;;;-1.13;90.19;96631.09;1822022;78;21371;-56
2022/12/12 13:11:44;;;;;;;20.17;15.55;;;;;;;-1.18;90.18;96628.41;1806903;77;21469;-59
